Station Historical Data
Daily Summary for May 10, 2017 Units:  Both    English   Metric
« Previous Day
Next Day »
Daily Weekly Monthly Yearly Custom
  High: Low: Average:
Temperature: 58.2 °F /  14.6 °C 42.4 °F /  5.8 °C 49.2 °F /  9.6 °C
Dew Point: 42.2 °F /  5.7 °C 32.4 °F /  0.2 °C 35.3 °F /  1.8 °C
Humidity: 74% 46% 59%
Wind Speed: 13.0mph /  20.9km/h - 3.4mph /  5.5km/h
Wind Gust: 15.0mph /  24.1km/h - -
Wind- - ENE
Pressure: 30.11 in /  1019.5 hPa 30.03 in /  1016.8 hPa -
Precipitation: 0.00 in /  0 mm    
Historical Graphs
 
 
Tabular Data for May 10, 2017
Time Temperature Dew Point Pressure Wind Wind Speed Wind Gust Humidity Rainfall Rate (Hourly)
00:04 46.2 °F /  7.9 °C 35.1 °F /  1.7 °C 30.04in /  1017.2hPa ENE 5.0mph /  8km/h 8.0mph /  12.9km/h 65% 0.00in /  0mm
00:09 46.1 °F /  7.8 °C 34.6 °F /  1.4 °C 30.04in /  1017.2hPa NE 3.0mph /  4.8km/h 8.0mph /  12.9km/h 64% 0.00in /  0mm
00:14 45.9 °F /  7.7 °C 34.4 °F /  1.3 °C 30.04in /  1017.2hPa East 3.0mph /  4.8km/h 10.0mph /  16.1km/h 64% 0.00in /  0mm
00:19 45.8 °F /  7.7 °C 34.3 °F /  1.3 °C 30.04in /  1017.2hPa NE 4.0mph /  6.4km/h 8.0mph /  12.9km/h 64% 0.00in /  0mm
00:24 45.7 °F /  7.6 °C 34.6 °F /  1.4 °C 30.04in /  1017.2hPa ENE 3.0mph /  4.8km/h 8.0mph /  12.9km/h 65% 0.00in /  0mm
00:29 45.6 °F /  7.6 °C 34.9 °F /  1.6 °C 30.04in /  1017.2hPa ENE 3.0mph /  4.8km/h 7.0mph /  11.3km/h 66% 0.00in /  0mm
00:34 45.5 °F /  7.5 °C 34.8 °F /  1.6 °C 30.05in /  1017.5hPa East 2.0mph /  3.2km/h 7.0mph /  11.3km/h 66% 0.00in /  0mm
00:39 45.4 °F /  7.4 °C 34.7 °F /  1.5 °C 30.05in /  1017.5hPa East 5.0mph /  8km/h 8.0mph /  12.9km/h 66% 0.00in /  0mm
00:44 45.2 °F /  7.3 °C 34.1 °F /  1.2 °C 30.05in /  1017.5hPa ENE 3.0mph /  4.8km/h 9.0mph /  14.5km/h 65% 0.00in /  0mm
00:49 45.2 °F /  7.3 °C 33.7 °F /  0.9 °C 30.05in /  1017.5hPa East 2.0mph /  3.2km/h 7.0mph /  11.3km/h 64% 0.00in /  0mm
00:54 45.1 °F /  7.3 °C 33.6 °F /  0.9 °C 30.05in /  1017.5hPa East 3.0mph /  4.8km/h 7.0mph /  11.3km/h 64% 0.00in /  0mm
00:59 45.1 °F /  7.3 °C 33.6 °F /  0.9 °C 30.05in /  1017.5hPa East 3.0mph /  4.8km/h 7.0mph /  11.3km/h 64% 0.00in /  0mm
01:04 45.1 °F /  7.3 °C 34.0 °F /  1.1 °C 30.05in /  1017.5hPa East 3.0mph /  4.8km/h 7.0mph /  11.3km/h 65% 0.00in /  0mm
01:09 45.1 °F /  7.3 °C 34.0 °F /  1.1 °C 30.05in /  1017.5hPa ENE 2.0mph /  3.2km/h 7.0mph /  11.3km/h 65% 0.00in /  0mm
01:14 45.0 °F /  7.2 °C 33.9 °F /  1.1 °C 30.05in /  1017.5hPa ENE 3.0mph /  4.8km/h 8.0mph /  12.9km/h 65% 0.00in /  0mm
01:19 44.9 °F /  7.2 °C 34.2 °F /  1.2 °C 30.05in /  1017.5hPa ENE 4.0mph /  6.4km/h 8.0mph /  12.9km/h 66% 0.00in /  0mm
01:24 44.9 °F /  7.2 °C 34.2 °F /  1.2 °C 30.04in /  1017.2hPa ENE 3.0mph /  4.8km/h 9.0mph /  14.5km/h 66% 0.00in /  0mm
01:29 44.8 °F /  7.1 °C 34.1 °F /  1.2 °C 30.04in /  1017.2hPa ENE 3.0mph /  4.8km/h 9.0mph /  14.5km/h 66% 0.00in /  0mm
01:34 44.8 °F /  7.1 °C 34.1 °F /  1.2 °C 30.05in /  1017.5hPa ENE 3.0mph /  4.8km/h 7.0mph /  11.3km/h 66% 0.00in /  0mm
01:39 44.7 °F /  7.1 °C 34.0 °F /  1.1 °C 30.05in /  1017.5hPa ENE 3.0mph /  4.8km/h 7.0mph /  11.3km/h 66% 0.00in /  0mm
01:44 44.6 °F /  7 °C 33.9 °F /  1.1 °C 30.05in /  1017.5hPa ENE 2.0mph /  3.2km/h 9.0mph /  14.5km/h 66% 0.00in /  0mm
01:49 44.6 °F /  7 °C 33.9 °F /  1.1 °C 30.05in /  1017.5hPa ENE 3.0mph /  4.8km/h 9.0mph /  14.5km/h 66% 0.00in /  0mm
01:54 44.5 °F /  6.9 °C 33.8 °F /  1 °C 30.04in /  1017.2hPa East 7.0mph /  11.3km/h 10.0mph /  16.1km/h 66% 0.00in /  0mm
01:59 44.4 °F /  6.9 °C 33.7 °F /  0.9 °C 30.04in /  1017.2hPa ENE 4.0mph /  6.4km/h 10.0mph /  16.1km/h 66% 0.00in /  0mm
02:04 44.4 °F /  6.9 °C 33.7 °F /  0.9 °C 30.04in /  1017.2hPa NE 2.0mph /  3.2km/h 6.0mph /  9.7km/h 66% 0.00in /  0mm
02:09 44.2 °F /  6.8 °C 33.6 °F /  0.9 °C 30.04in /  1017.2hPa ENE 3.0mph /  4.8km/h 8.0mph /  12.9km/h 66% 0.00in /  0mm
02:14 44.1 °F /  6.7 °C 33.8 °F /  1 °C 30.04in /  1017.2hPa East 5.0mph /  8km/h 7.0mph /  11.3km/h 67% 0.00in /  0mm
02:19 43.8 °F /  6.6 °C 33.6 °F /  0.9 °C 30.03in /  1016.8hPa ENE 3.0mph /  4.8km/h 7.0mph /  11.3km/h 67% 0.00in /  0mm
02:24 43.6 °F /  6.4 °C 33.4 °F /  0.8 °C 30.03in /  1016.8hPa ENE 3.0mph /  4.8km/h 5.0mph /  8km/h 67% 0.00in /  0mm
02:29 43.5 °F /  6.4 °C 33.6 °F /  0.9 °C 30.03in /  1016.8hPa East 3.0mph /  4.8km/h 5.0mph /  8km/h 68% 0.00in /  0mm
02:34 43.3 °F /  6.3 °C 33.4 °F /  0.8 °C 30.03in /  1016.8hPa NE 1.0mph /  1.6km/h 6.0mph /  9.7km/h 68% 0.00in /  0mm
02:39 43.3 °F /  6.3 °C 33.8 °F /  1 °C 30.03in /  1016.8hPa ENE 2.0mph /  3.2km/h 7.0mph /  11.3km/h 69% 0.00in /  0mm
02:44 43.2 °F /  6.2 °C 33.7 °F /  0.9 °C 30.03in /  1016.8hPa ENE 2.0mph /  3.2km/h 6.0mph /  9.7km/h 69% 0.00in /  0mm
02:49 43.2 °F /  6.2 °C 33.7 °F /  0.9 °C 30.03in /  1016.8hPa ENE 3.0mph /  4.8km/h 7.0mph /  11.3km/h 69% 0.00in /  0mm
02:54 43.1 °F /  6.2 °C 34.0 °F /  1.1 °C 30.03in /  1016.8hPa East 3.0mph /  4.8km/h 8.0mph /  12.9km/h 70% 0.00in /  0mm
02:59 43.0 °F /  6.1 °C 33.9 °F /  1.1 °C 30.03in /  1016.8hPa East 2.0mph /  3.2km/h 8.0mph /  12.9km/h 70% 0.00in /  0mm
03:04 42.9 °F /  6.1 °C 33.8 °F /  1 °C 30.03in /  1016.8hPa ENE 1.0mph /  1.6km/h 5.0mph /  8km/h 70% 0.00in /  0mm
03:09 43.0 °F /  6.1 °C 33.9 °F /  1.1 °C 30.03in /  1016.8hPa ENE 2.0mph /  3.2km/h 5.0mph /  8km/h 70% 0.00in /  0mm
03:14 43.0 °F /  6.1 °C 34.2 °F /  1.2 °C 30.04in /  1017.2hPa NE 4.0mph /  6.4km/h 4.0mph /  6.4km/h 71% 0.00in /  0mm
03:19 42.9 °F /  6.1 °C 34.1 °F /  1.2 °C 30.04in /  1017.2hPa ENE 2.0mph /  3.2km/h 5.0mph /  8km/h 71% 0.00in /  0mm
03:24 42.9 °F /  6.1 °C 34.1 °F /  1.2 °C 30.04in /  1017.2hPa ENE 2.0mph /  3.2km/h 4.0mph /  6.4km/h 71% 0.00in /  0mm
03:29 42.9 °F /  6.1 °C 34.1 °F /  1.2 °C 30.04in /  1017.2hPa NE 2.0mph /  3.2km/h 4.0mph /  6.4km/h 71% 0.00in /  0mm
03:34 42.8 °F /  6 °C 34.0 °F /  1.1 °C 30.04in /  1017.2hPa ENE 2.0mph /  3.2km/h 5.0mph /  8km/h 71% 0.00in /  0mm
03:39 42.7 °F /  5.9 °C 33.9 °F /  1.1 °C 30.05in /  1017.5hPa NE 1.0mph /  1.6km/h 5.0mph /  8km/h 71% 0.00in /  0mm
03:44 42.6 °F /  5.9 °C 34.2 °F /  1.2 °C 30.05in /  1017.5hPa ENE 4.0mph /  6.4km/h 5.0mph /  8km/h 72% 0.00in /  0mm
03:49 42.6 °F /  5.9 °C 34.2 °F /  1.2 °C 30.05in /  1017.5hPa NE 3.0mph /  4.8km/h 7.0mph /  11.3km/h 72% 0.00in /  0mm
03:54 42.8 °F /  6 °C 34.4 °F /  1.3 °C 30.05in /  1017.5hPa NE 4.0mph /  6.4km/h 7.0mph /  11.3km/h 72% 0.00in /  0mm
03:59 42.7 °F /  5.9 °C 34.3 °F /  1.3 °C 30.05in /  1017.5hPa NE 2.0mph /  3.2km/h 5.0mph /  8km/h 72% 0.00in /  0mm
04:04 42.8 °F /  6 °C 34.4 °F /  1.3 °C 30.05in /  1017.5hPa ENE 2.0mph /  3.2km/h 5.0mph /  8km/h 72% 0.00in /  0mm
04:09 42.8 °F /  6 °C 34.4 °F /  1.3 °C 30.06in /  1017.8hPa ENE 3.0mph /  4.8km/h 6.0mph /  9.7km/h 72% 0.00in /  0mm
04:14 42.9 °F /  6.1 °C 34.8 °F /  1.6 °C 30.06in /  1017.8hPa ENE 5.0mph /  8km/h 7.0mph /  11.3km/h 73% 0.00in /  0mm
04:19 42.9 °F /  6.1 °C 34.8 °F /  1.6 °C 30.06in /  1017.8hPa ENE 1.0mph /  1.6km/h 5.0mph /  8km/h 73% 0.00in /  0mm
04:24 42.8 °F /  6 °C 34.7 °F /  1.5 °C 30.06in /  1017.8hPa ENE 3.0mph /  4.8km/h 4.0mph /  6.4km/h 73% 0.00in /  0mm
04:29 42.8 °F /  6 °C 34.4 °F /  1.3 °C 30.06in /  1017.8hPa ENE 1.0mph /  1.6km/h 6.0mph /  9.7km/h 72% 0.00in /  0mm
04:34 42.8 °F /  6 °C 34.4 °F /  1.3 °C 30.06in /  1017.8hPa East 5.0mph /  8km/h 5.0mph /  8km/h 72% 0.00in /  0mm
04:39 42.7 °F /  5.9 °C 34.3 °F /  1.3 °C 30.06in /  1017.8hPa East 1.0mph /  1.6km/h 5.0mph /  8km/h 72% 0.00in /  0mm
04:44 42.7 °F /  5.9 °C 34.3 °F /  1.3 °C 30.06in /  1017.8hPa East 1.0mph /  1.6km/h 5.0mph /  8km/h 72% 0.00in /  0mm
04:49 42.5 °F /  5.8 °C 34.1 °F /  1.2 °C 30.06in /  1017.8hPa ENE 2.0mph /  3.2km/h 5.0mph /  8km/h 72% 0.00in /  0mm
04:54 42.5 °F /  5.8 °C 34.1 °F /  1.2 °C 30.06in /  1017.8hPa NE 1.0mph /  1.6km/h 5.0mph /  8km/h 72% 0.00in /  0mm
04:59 42.5 °F /  5.8 °C 34.5 °F /  1.4 °C 30.06in /  1017.8hPa ENE 2.0mph /  3.2km/h 4.0mph /  6.4km/h 73% 0.00in /  0mm
05:04 42.5 °F /  5.8 °C 34.5 °F /  1.4 °C 30.06in /  1017.8hPa East 2.0mph /  3.2km/h 5.0mph /  8km/h 73% 0.00in /  0mm
05:09 42.5 °F /  5.8 °C 34.5 °F /  1.4 °C 30.06in /  1017.8hPa ENE 2.0mph /  3.2km/h 5.0mph /  8km/h 73% 0.00in /  0mm
05:14 42.4 °F /  5.8 °C 34.4 °F /  1.3 °C 30.06in /  1017.8hPa NE 2.0mph /  3.2km/h 5.0mph /  8km/h 73% 0.00in /  0mm
05:19 42.5 °F /  5.8 °C 34.5 °F /  1.4 °C 30.06in /  1017.8hPa East 3.0mph /  4.8km/h 5.0mph /  8km/h 73% 0.00in /  0mm
05:24 42.5 °F /  5.8 °C 34.5 °F /  1.4 °C 30.06in /  1017.8hPa East 2.0mph /  3.2km/h 5.0mph /  8km/h 73% 0.00in /  0mm
05:29 42.4 °F /  5.8 °C 34.4 °F /  1.3 °C 30.07in /  1018.2hPa ENE 2.0mph /  3.2km/h 3.0mph /  4.8km/h 73% 0.00in /  0mm
05:34 42.4 °F /  5.8 °C 34.4 °F /  1.3 °C 30.07in /  1018.2hPa East 1.0mph /  1.6km/h 3.0mph /  4.8km/h 73% 0.00in /  0mm
05:39 42.5 °F /  5.8 °C 34.5 °F /  1.4 °C 30.07in /  1018.2hPa ENE 2.0mph /  3.2km/h 5.0mph /  8km/h 73% 0.00in /  0mm
05:44 42.4 °F /  5.8 °C 34.4 °F /  1.3 °C 30.07in /  1018.2hPa ENE 1.0mph /  1.6km/h 4.0mph /  6.4km/h 73% 0.00in /  0mm
05:49 42.5 °F /  5.8 °C 34.5 °F /  1.4 °C 30.07in /  1018.2hPa ENE 2.0mph /  3.2km/h 4.0mph /  6.4km/h 73% 0.00in /  0mm
05:54 42.5 °F /  5.8 °C 34.5 °F /  1.4 °C 30.07in /  1018.2hPa ENE 2.0mph /  3.2km/h 5.0mph /  8km/h 73% 0.00in /  0mm
05:59 42.5 °F /  5.8 °C 34.5 °F /  1.4 °C 30.07in /  1018.2hPa ENE 3.0mph /  4.8km/h 6.0mph /  9.7km/h 73% 0.00in /  0mm
06:04 42.6 °F /  5.9 °C 34.9 °F /  1.6 °C 30.08in /  1018.5hPa ENE 3.0mph /  4.8km/h 7.0mph /  11.3km/h 74% 0.00in /  0mm
06:09 42.5 °F /  5.8 °C 34.5 °F /  1.4 °C 30.08in /  1018.5hPa NE 4.0mph /  6.4km/h 8.0mph /  12.9km/h 73% 0.00in /  0mm
06:14 42.5 °F /  5.8 °C 34.8 °F /  1.6 °C 30.08in /  1018.5hPa NE 3.0mph /  4.8km/h 8.0mph /  12.9km/h 74% 0.00in /  0mm
06:19 42.5 °F /  5.8 °C 34.8 °F /  1.6 °C 30.08in /  1018.5hPa NE 3.0mph /  4.8km/h 7.0mph /  11.3km/h 74% 0.00in /  0mm
06:24 42.5 °F /  5.8 °C 34.8 °F /  1.6 °C 30.08in /  1018.5hPa NE 3.0mph /  4.8km/h 8.0mph /  12.9km/h 74% 0.00in /  0mm
06:29 42.5 °F /  5.8 °C 34.8 °F /  1.6 °C 30.08in /  1018.5hPa NE 3.0mph /  4.8km/h 6.0mph /  9.7km/h 74% 0.00in /  0mm
06:34 42.5 °F /  5.8 °C 34.8 °F /  1.6 °C 30.08in /  1018.5hPa ENE 2.0mph /  3.2km/h 9.0mph /  14.5km/h 74% 0.00in /  0mm
06:39 42.7 °F /  5.9 °C 35.0 °F /  1.7 °C 30.09in /  1018.8hPa NE 4.0mph /  6.4km/h 8.0mph /  12.9km/h 74% 0.00in /  0mm
06:44 42.7 °F /  5.9 °C 35.0 °F /  1.7 °C 30.09in /  1018.8hPa ENE 7.0mph /  11.3km/h 8.0mph /  12.9km/h 74% 0.00in /  0mm
06:49 42.9 °F /  6.1 °C 35.2 °F /  1.8 °C 30.09in /  1018.8hPa Calm   7.0mph /  11.3km/h 74% 0.00in /  0mm
06:54 43.0 °F /  6.1 °C 35.3 °F /  1.8 °C 30.09in /  1018.8hPa ENE 4.0mph /  6.4km/h 9.0mph /  14.5km/h 74% 0.00in /  0mm
06:59 43.0 °F /  6.1 °C 34.9 °F /  1.6 °C 30.09in /  1018.8hPa ENE 4.0mph /  6.4km/h 9.0mph /  14.5km/h 73% 0.00in /  0mm
07:04 43.1 °F /  6.2 °C 35.0 °F /  1.7 °C 30.09in /  1018.8hPa ENE 4.0mph /  6.4km/h 8.0mph /  12.9km/h 73% 0.00in /  0mm
07:09 43.3 °F /  6.3 °C 35.2 °F /  1.8 °C 30.09in /  1018.8hPa ENE 4.0mph /  6.4km/h 8.0mph /  12.9km/h 73% 0.00in /  0mm
07:14 43.5 °F /  6.4 °C 35.4 °F /  1.9 °C 30.09in /  1018.8hPa NE 5.0mph /  8km/h 8.0mph /  12.9km/h 73% 0.00in /  0mm
07:19 43.6 °F /  6.4 °C 35.5 °F /  1.9 °C 30.09in /  1018.8hPa ENE 4.0mph /  6.4km/h 8.0mph /  12.9km/h 73% 0.00in /  0mm
07:24 43.9 °F /  6.6 °C 35.5 °F /  1.9 °C 30.09in /  1018.8hPa ENE 4.0mph /  6.4km/h 7.0mph /  11.3km/h 72% 0.00in /  0mm
07:29 43.9 °F /  6.6 °C 35.1 °F /  1.7 °C 30.09in /  1018.8hPa ENE 4.0mph /  6.4km/h 7.0mph /  11.3km/h 71% 0.00in /  0mm
07:34 44.0 °F /  6.7 °C 35.2 °F /  1.8 °C 30.09in /  1018.8hPa ENE 2.0mph /  3.2km/h 5.0mph /  8km/h 71% 0.00in /  0mm
07:39 44.0 °F /  6.7 °C 35.2 °F /  1.8 °C 30.09in /  1018.8hPa ESE 3.0mph /  4.8km/h 6.0mph /  9.7km/h 71% 0.00in /  0mm
07:44 44.1 °F /  6.7 °C 35.6 °F /  2 °C 30.10in /  1019.2hPa ENE 2.0mph /  3.2km/h 4.0mph /  6.4km/h 72% 0.00in /  0mm
07:49 44.2 °F /  6.8 °C 35.4 °F /  1.9 °C 30.10in /  1019.2hPa ENE 1.0mph /  1.6km/h 4.0mph /  6.4km/h 71% 0.00in /  0mm
07:54 44.4 °F /  6.9 °C 35.6 °F /  2 °C 30.10in /  1019.2hPa ENE 2.0mph /  3.2km/h 5.0mph /  8km/h 71% 0.00in /  0mm
07:59 44.5 °F /  6.9 °C 35.3 °F /  1.8 °C 30.10in /  1019.2hPa ENE 2.0mph /  3.2km/h 5.0mph /  8km/h 70% 0.00in /  0mm
08:04 44.7 °F /  7.1 °C 35.5 °F /  1.9 °C 30.10in /  1019.2hPa ENE 2.0mph /  3.2km/h 5.0mph /  8km/h 70% 0.00in /  0mm
08:09 44.9 °F /  7.2 °C 35.3 °F /  1.8 °C 30.10in /  1019.2hPa ENE 3.0mph /  4.8km/h 5.0mph /  8km/h 69% 0.00in /  0mm
08:14 45.5 °F /  7.5 °C 36.3 °F /  2.4 °C 30.10in /  1019.2hPa ENE 3.0mph /  4.8km/h 5.0mph /  8km/h 70% 0.00in /  0mm
08:19 46.5 °F /  8.1 °C 36.9 °F /  2.7 °C 30.10in /  1019.2hPa NE 4.0mph /  6.4km/h 4.0mph /  6.4km/h 69% 0.00in /  0mm
08:24 47.3 °F /  8.5 °C 36.9 °F /  2.7 °C 30.10in /  1019.2hPa NNE 4.0mph /  6.4km/h 5.0mph /  8km/h 67% 0.00in /  0mm
08:29 47.5 °F /  8.6 °C 35.9 °F /  2.2 °C 30.10in /  1019.2hPa NE 5.0mph /  8km/h 7.0mph /  11.3km/h 64% 0.00in /  0mm
08:34 47.9 °F /  8.8 °C 36.3 °F /  2.4 °C 30.10in /  1019.2hPa ENE 2.0mph /  3.2km/h 5.0mph /  8km/h 64% 0.00in /  0mm
08:39 48.1 °F /  8.9 °C 35.7 °F /  2.1 °C 30.10in /  1019.2hPa NNE 4.0mph /  6.4km/h 9.0mph /  14.5km/h 62% 0.00in /  0mm
08:44 48.5 °F /  9.2 °C 36.5 °F /  2.5 °C 30.10in /  1019.2hPa NE 2.0mph /  3.2km/h 9.0mph /  14.5km/h 63% 0.00in /  0mm
08:49 49.3 °F /  9.6 °C 37.2 °F /  2.9 °C 30.10in /  1019.2hPa ENE 5.0mph /  8km/h 7.0mph /  11.3km/h 63% 0.00in /  0mm
08:54 49.2 °F /  9.6 °C 35.9 °F /  2.2 °C 30.10in /  1019.2hPa ENE 2.0mph /  3.2km/h 7.0mph /  11.3km/h 60% 0.00in /  0mm
08:59 49.6 °F /  9.8 °C 35.4 °F /  1.9 °C 30.10in /  1019.2hPa ENE 2.0mph /  3.2km/h 6.0mph /  9.7km/h 58% 0.00in /  0mm
09:04 50.4 °F /  10.2 °C 36.2 °F /  2.3 °C 30.10in /  1019.2hPa NE 2.0mph /  3.2km/h 9.0mph /  14.5km/h 58% 0.00in /  0mm
09:09 50.3 °F /  10.2 °C 36.5 °F /  2.5 °C 30.10in /  1019.2hPa NE 3.0mph /  4.8km/h 9.0mph /  14.5km/h 59% 0.00in /  0mm
09:14 50.2 °F /  10.1 °C 35.5 °F /  1.9 °C 30.10in /  1019.2hPa NE 7.0mph /  11.3km/h 9.0mph /  14.5km/h 57% 0.00in /  0mm
09:19 49.9 °F /  9.9 °C 35.3 °F /  1.8 °C 30.10in /  1019.2hPa ESE 4.0mph /  6.4km/h 8.0mph /  12.9km/h 57% 0.00in /  0mm
09:24 50.1 °F /  10.1 °C 35.9 °F /  2.2 °C 30.10in /  1019.2hPa NE 5.0mph /  8km/h 8.0mph /  12.9km/h 58% 0.00in /  0mm
09:29 50.4 °F /  10.2 °C 37.0 °F /  2.8 °C 30.10in /  1019.2hPa NE 2.0mph /  3.2km/h 8.0mph /  12.9km/h 60% 0.00in /  0mm
09:34 50.2 °F /  10.1 °C 35.5 °F /  1.9 °C 30.10in /  1019.2hPa ENE 2.0mph /  3.2km/h 7.0mph /  11.3km/h 57% 0.00in /  0mm
09:39 50.2 °F /  10.1 °C 34.2 °F /  1.2 °C 30.11in /  1019.5hPa NE 3.0mph /  4.8km/h 9.0mph /  14.5km/h 54% 0.00in /  0mm
09:44 50.8 °F /  10.4 °C 36.1 °F /  2.3 °C 30.10in /  1019.2hPa NNE 1.0mph /  1.6km/h 4.0mph /  6.4km/h 57% 0.00in /  0mm
09:49 50.7 °F /  10.4 °C 34.6 °F /  1.4 °C 30.10in /  1019.2hPa East 6.0mph /  9.7km/h 9.0mph /  14.5km/h 54% 0.00in /  0mm
09:54 50.8 °F /  10.4 °C 35.2 °F /  1.8 °C 30.10in /  1019.2hPa ENE 4.0mph /  6.4km/h 9.0mph /  14.5km/h 55% 0.00in /  0mm
09:59 51.2 °F /  10.7 °C 36.0 °F /  2.2 °C 30.10in /  1019.2hPa NE 3.0mph /  4.8km/h 9.0mph /  14.5km/h 56% 0.00in /  0mm
10:04 51.8 °F /  11 °C 37.0 °F /  2.8 °C 30.10in /  1019.2hPa NE 3.0mph /  4.8km/h 8.0mph /  12.9km/h 57% 0.00in /  0mm
10:09 52.6 °F /  11.4 °C 37.3 °F /  2.9 °C 30.10in /  1019.2hPa NE 2.0mph /  3.2km/h 7.0mph /  11.3km/h 56% 0.00in /  0mm
10:14 52.2 °F /  11.2 °C 37.0 °F /  2.8 °C 30.10in /  1019.2hPa NE 2.0mph /  3.2km/h 7.0mph /  11.3km/h 56% 0.00in /  0mm
10:19 51.8 °F /  11 °C 36.6 °F /  2.6 °C 30.10in /  1019.2hPa ENE 2.0mph /  3.2km/h 10.0mph /  16.1km/h 56% 0.00in /  0mm
10:24 51.8 °F /  11 °C 36.6 °F /  2.6 °C 30.09in /  1018.8hPa ENE 3.0mph /  4.8km/h 10.0mph /  16.1km/h 56% 0.00in /  0mm
10:29 51.6 °F /  10.9 °C 35.9 °F /  2.2 °C 30.09in /  1018.8hPa ENE 3.0mph /  4.8km/h 7.0mph /  11.3km/h 55% 0.00in /  0mm
10:34 51.3 °F /  10.7 °C 35.7 °F /  2.1 °C 30.09in /  1018.8hPa NE 3.0mph /  4.8km/h 9.0mph /  14.5km/h 55% 0.00in /  0mm
10:39 50.9 °F /  10.5 °C 36.2 °F /  2.3 °C 30.09in /  1018.8hPa NE 4.0mph /  6.4km/h 10.0mph /  16.1km/h 57% 0.00in /  0mm
10:44 51.0 °F /  10.6 °C 34.9 °F /  1.6 °C 30.09in /  1018.8hPa NE 5.0mph /  8km/h 8.0mph /  12.9km/h 54% 0.00in /  0mm
10:49 51.0 °F /  10.6 °C 35.8 °F /  2.1 °C 30.09in /  1018.8hPa ENE 9.0mph /  14.5km/h 11.0mph /  17.7km/h 56% 0.00in /  0mm
10:54 51.1 °F /  10.6 °C 35.0 °F /  1.7 °C 30.09in /  1018.8hPa ENE 5.0mph /  8km/h 11.0mph /  17.7km/h 54% 0.00in /  0mm
10:59 51.3 °F /  10.7 °C 35.2 °F /  1.8 °C 30.09in /  1018.8hPa NE 5.0mph /  8km/h 10.0mph /  16.1km/h 54% 0.00in /  0mm
11:04 51.3 °F /  10.7 °C 35.2 °F /  1.8 °C 30.09in /  1018.8hPa NE 3.0mph /  4.8km/h 8.0mph /  12.9km/h 54% 0.00in /  0mm
11:09 51.8 °F /  11 °C 34.7 °F /  1.5 °C 30.09in /  1018.8hPa NE 9.0mph /  14.5km/h 10.0mph /  16.1km/h 52% 0.00in /  0mm
11:14 51.4 °F /  10.8 °C 36.2 °F /  2.3 °C 30.09in /  1018.8hPa NE 2.0mph /  3.2km/h 9.0mph /  14.5km/h 56% 0.00in /  0mm
11:19 51.4 °F /  10.8 °C 35.3 °F /  1.8 °C 30.09in /  1018.8hPa ENE 5.0mph /  8km/h 8.0mph /  12.9km/h 54% 0.00in /  0mm
11:24 51.7 °F /  10.9 °C 36.9 °F /  2.7 °C 30.09in /  1018.8hPa NE 3.0mph /  4.8km/h 8.0mph /  12.9km/h 57% 0.00in /  0mm
11:29 52.0 °F /  11.1 °C 36.3 °F /  2.4 °C 30.09in /  1018.8hPa NE 3.0mph /  4.8km/h 8.0mph /  12.9km/h 55% 0.00in /  0mm
11:34 51.7 °F /  10.9 °C 35.1 °F /  1.7 °C 30.09in /  1018.8hPa NE 3.0mph /  4.8km/h 7.0mph /  11.3km/h 53% 0.00in /  0mm
11:39 51.7 °F /  10.9 °C 35.1 °F /  1.7 °C 30.09in /  1018.8hPa NE 4.0mph /  6.4km/h 9.0mph /  14.5km/h 53% 0.00in /  0mm
11:44 51.7 °F /  10.9 °C 34.6 °F /  1.4 °C 30.09in /  1018.8hPa NE 4.0mph /  6.4km/h 10.0mph /  16.1km/h 52% 0.00in /  0mm
11:49 52.3 °F /  11.3 °C 37.1 °F /  2.8 °C 30.09in /  1018.8hPa NE 6.0mph /  9.7km/h 7.0mph /  11.3km/h 56% 0.00in /  0mm
11:54 52.4 °F /  11.3 °C 34.8 °F /  1.6 °C 30.09in /  1018.8hPa NE 3.0mph /  4.8km/h 9.0mph /  14.5km/h 51% 0.00in /  0mm
11:59 53.4 °F /  11.9 °C 39.0 °F /  3.9 °C 30.09in /  1018.8hPa NE 3.0mph /  4.8km/h 4.0mph /  6.4km/h 58% 0.00in /  0mm
12:04 53.5 °F /  11.9 °C 37.7 °F /  3.2 °C 30.09in /  1018.8hPa NE 4.0mph /  6.4km/h 7.0mph /  11.3km/h 55% 0.00in /  0mm
12:09 54.8 °F /  12.7 °C 38.9 °F /  3.8 °C 30.09in /  1018.8hPa NE 6.0mph /  9.7km/h 8.0mph /  12.9km/h 55% 0.00in /  0mm
12:14 55.2 °F /  12.9 °C 38.8 °F /  3.8 °C 30.09in /  1018.8hPa NNE 4.0mph /  6.4km/h 7.0mph /  11.3km/h 54% 0.00in /  0mm
12:19 54.1 °F /  12.3 °C 37.3 °F /  2.9 °C 30.09in /  1018.8hPa North 2.0mph /  3.2km/h 5.0mph /  8km/h 53% 0.00in /  0mm
12:24 53.5 °F /  11.9 °C 36.3 °F /  2.4 °C 30.09in /  1018.8hPa NNE 3.0mph /  4.8km/h 8.0mph /  12.9km/h 52% 0.00in /  0mm
12:29 53.5 °F /  11.9 °C 37.3 °F /  2.9 °C 30.10in /  1019.2hPa ENE 3.0mph /  4.8km/h 8.0mph /  12.9km/h 54% 0.00in /  0mm
12:34 53.3 °F /  11.8 °C 36.6 °F /  2.6 °C 30.09in /  1018.8hPa NNE 3.0mph /  4.8km/h 9.0mph /  14.5km/h 53% 0.00in /  0mm
12:39 54.2 °F /  12.3 °C 37.9 °F /  3.3 °C 30.09in /  1018.8hPa ENE 4.0mph /  6.4km/h 5.0mph /  8km/h 54% 0.00in /  0mm
12:44 55.5 °F /  13.1 °C 38.1 °F /  3.4 °C 30.09in /  1018.8hPa NNW 3.0mph /  4.8km/h 5.0mph /  8km/h 52% 0.00in /  0mm
12:49 55.0 °F /  12.8 °C 37.7 °F /  3.2 °C 30.09in /  1018.8hPa ENE 4.0mph /  6.4km/h 5.0mph /  8km/h 52% 0.00in /  0mm
12:54 54.6 °F /  12.6 °C 35.8 °F /  2.1 °C 30.09in /  1018.8hPa Calm   7.0mph /  11.3km/h 49% 0.00in /  0mm
12:59 54.9 °F /  12.7 °C 36.6 °F /  2.6 °C 30.09in /  1018.8hPa North 3.0mph /  4.8km/h 7.0mph /  11.3km/h 50% 0.00in /  0mm
13:09 54.5 °F /  12.5 °C 35.7 °F /  2.1 °C 30.09in /  1018.8hPa NE 3.0mph /  4.8km/h 10.0mph /  16.1km/h 49% 0.00in /  0mm
13:14 56.1 °F /  13.4 °C 39.2 °F /  4 °C 30.09in /  1018.8hPa NE 3.0mph /  4.8km/h 9.0mph /  14.5km/h 53% 0.00in /  0mm
13:19 55.3 °F /  12.9 °C 37.5 °F /  3.1 °C 30.09in /  1018.8hPa NE 4.0mph /  6.4km/h 9.0mph /  14.5km/h 51% 0.00in /  0mm
13:24 55.5 °F /  13.1 °C 38.6 °F /  3.7 °C 30.09in /  1018.8hPa ENE 4.0mph /  6.4km/h 10.0mph /  16.1km/h 53% 0.00in /  0mm
13:29 54.7 °F /  12.6 °C 36.4 °F /  2.4 °C 30.08in /  1018.5hPa NE 2.0mph /  3.2km/h 8.0mph /  12.9km/h 50% 0.00in /  0mm
13:34 55.2 °F /  12.9 °C 37.9 °F /  3.3 °C 30.08in /  1018.5hPa ENE 2.0mph /  3.2km/h 10.0mph /  16.1km/h 52% 0.00in /  0mm
13:39 55.8 °F /  13.2 °C 38.9 °F /  3.8 °C 30.08in /  1018.5hPa NNE 3.0mph /  4.8km/h 10.0mph /  16.1km/h 53% 0.00in /  0mm
13:44 56.1 °F /  13.4 °C 39.2 °F /  4 °C 30.08in /  1018.5hPa North 6.0mph /  9.7km/h 9.0mph /  14.5km/h 53% 0.00in /  0mm
13:49 55.4 °F /  13 °C 37.1 °F /  2.8 °C 30.09in /  1018.8hPa NNE 5.0mph /  8km/h 10.0mph /  16.1km/h 50% 0.00in /  0mm
13:54 55.6 °F /  13.1 °C 37.2 °F /  2.9 °C 30.09in /  1018.8hPa North 4.0mph /  6.4km/h 10.0mph /  16.1km/h 50% 0.00in /  0mm
13:59 56.1 °F /  13.4 °C 39.2 °F /  4 °C 30.09in /  1018.8hPa North 2.0mph /  3.2km/h 7.0mph /  11.3km/h 53% 0.00in /  0mm
14:04 55.9 °F /  13.3 °C 38.5 °F /  3.6 °C 30.09in /  1018.8hPa NNE 2.0mph /  3.2km/h 5.0mph /  8km/h 52% 0.00in /  0mm
14:09 56.3 °F /  13.5 °C 39.9 °F /  4.4 °C 30.08in /  1018.5hPa East 6.0mph /  9.7km/h 7.0mph /  11.3km/h 54% 0.00in /  0mm
14:14 57.1 °F /  13.9 °C 40.1 °F /  4.5 °C 30.08in /  1018.5hPa North 2.0mph /  3.2km/h 7.0mph /  11.3km/h 53% 0.00in /  0mm
14:19 56.9 °F /  13.8 °C 38.4 °F /  3.6 °C 30.08in /  1018.5hPa NE 3.0mph /  4.8km/h 7.0mph /  11.3km/h 50% 0.00in /  0mm
14:24 57.8 °F /  14.3 °C 40.3 °F /  4.6 °C 30.08in /  1018.5hPa NNE 3.0mph /  4.8km/h 9.0mph /  14.5km/h 52% 0.00in /  0mm
14:29 57.1 °F /  13.9 °C 38.6 °F /  3.7 °C 30.08in /  1018.5hPa NE 4.0mph /  6.4km/h 9.0mph /  14.5km/h 50% 0.00in /  0mm
14:34 56.6 °F /  13.7 °C 39.2 °F /  4 °C 30.08in /  1018.5hPa NE 6.0mph /  9.7km/h 12.0mph /  19.3km/h 52% 0.00in /  0mm
14:39 56.6 °F /  13.7 °C 38.7 °F /  3.7 °C 30.08in /  1018.5hPa ENE 5.0mph /  8km/h 12.0mph /  19.3km/h 51% 0.00in /  0mm
14:44 57.3 °F /  14.1 °C 40.3 °F /  4.6 °C 30.08in /  1018.5hPa ENE 2.0mph /  3.2km/h 8.0mph /  12.9km/h 53% 0.00in /  0mm
14:49 57.2 °F /  14 °C 40.2 °F /  4.6 °C 30.08in /  1018.5hPa ENE 4.0mph /  6.4km/h 14.0mph /  22.5km/h 53% 0.00in /  0mm
14:54 57.6 °F /  14.2 °C 39.1 °F /  3.9 °C 30.08in /  1018.5hPa NE 3.0mph /  4.8km/h 14.0mph /  22.5km/h 50% 0.00in /  0mm
14:59 57.7 °F /  14.3 °C 40.2 °F /  4.6 °C 30.08in /  1018.5hPa NNW 6.0mph /  9.7km/h 13.0mph /  20.9km/h 52% 0.00in /  0mm
15:04 58.0 °F /  14.4 °C 38.9 °F /  3.8 °C 30.08in /  1018.5hPa NE 4.0mph /  6.4km/h 7.0mph /  11.3km/h 49% 0.00in /  0mm
15:09 57.7 °F /  14.3 °C 39.7 °F /  4.3 °C 30.08in /  1018.5hPa ENE 7.0mph /  11.3km/h 8.0mph /  12.9km/h 51% 0.00in /  0mm
15:14 57.7 °F /  14.3 °C 41.2 °F /  5.1 °C 30.07in /  1018.2hPa ENE 3.0mph /  4.8km/h 12.0mph /  19.3km/h 54% 0.00in /  0mm
15:19 57.5 °F /  14.2 °C 39.0 °F /  3.9 °C 30.07in /  1018.2hPa NE 5.0mph /  8km/h 12.0mph /  19.3km/h 50% 0.00in /  0mm
15:24 57.5 °F /  14.2 °C 40.5 °F /  4.7 °C 30.07in /  1018.2hPa NE 4.0mph /  6.4km/h 12.0mph /  19.3km/h 53% 0.00in /  0mm
15:29 58.2 °F /  14.6 °C 40.6 °F /  4.8 °C 30.07in /  1018.2hPa NE 4.0mph /  6.4km/h 13.0mph /  20.9km/h 52% 0.00in /  0mm
15:34 57.5 °F /  14.2 °C 41.0 °F /  5 °C 30.07in /  1018.2hPa NE 5.0mph /  8km/h 13.0mph /  20.9km/h 54% 0.00in /  0mm
15:39 57.2 °F /  14 °C 39.7 °F /  4.3 °C 30.07in /  1018.2hPa NE 6.0mph /  9.7km/h 15.0mph /  24.1km/h 52% 0.00in /  0mm
15:44 57.8 °F /  14.3 °C 42.2 °F /  5.7 °C 30.07in /  1018.2hPa NNE 4.0mph /  6.4km/h 13.0mph /  20.9km/h 56% 0.00in /  0mm
15:49 58.0 °F /  14.4 °C 40.5 °F /  4.7 °C 30.07in /  1018.2hPa NE 5.0mph /  8km/h 13.0mph /  20.9km/h 52% 0.00in /  0mm
15:54 57.9 °F /  14.4 °C 39.9 °F /  4.4 °C 30.07in /  1018.2hPa NE 4.0mph /  6.4km/h 11.0mph /  17.7km/h 51% 0.00in /  0mm
15:59 57.8 °F /  14.3 °C 39.8 °F /  4.3 °C 30.07in /  1018.2hPa NNE 3.0mph /  4.8km/h 10.0mph /  16.1km/h 51% 0.00in /  0mm
16:04 57.6 °F /  14.2 °C 39.6 °F /  4.2 °C 30.07in /  1018.2hPa North 1.0mph /  1.6km/h 8.0mph /  12.9km/h 51% 0.00in /  0mm
16:09 57.9 °F /  14.4 °C 39.4 °F /  4.1 °C 30.07in /  1018.2hPa NNW 2.0mph /  3.2km/h 9.0mph /  14.5km/h 50% 0.00in /  0mm
16:14 57.8 °F /  14.3 °C 38.8 °F /  3.8 °C 30.07in /  1018.2hPa NNE 4.0mph /  6.4km/h 11.0mph /  17.7km/h 49% 0.00in /  0mm
16:19 57.1 °F /  13.9 °C 37.0 °F /  2.8 °C 30.07in /  1018.2hPa NNE 4.0mph /  6.4km/h 11.0mph /  17.7km/h 47% 0.00in /  0mm
16:24 57.1 °F /  13.9 °C 37.0 °F /  2.8 °C 30.07in /  1018.2hPa NE 3.0mph /  4.8km/h 6.0mph /  9.7km/h 47% 0.00in /  0mm
16:29 57.1 °F /  13.9 °C 37.6 °F /  3.1 °C 30.07in /  1018.2hPa NE 8.0mph /  12.9km/h 12.0mph /  19.3km/h 48% 0.00in /  0mm
16:34 57.3 °F /  14.1 °C 36.7 °F /  2.6 °C 30.08in /  1018.5hPa North 4.0mph /  6.4km/h 9.0mph /  14.5km/h 46% 0.00in /  0mm
16:39 57.1 °F /  13.9 °C 37.6 °F /  3.1 °C 30.08in /  1018.5hPa NNE 6.0mph /  9.7km/h 7.0mph /  11.3km/h 48% 0.00in /  0mm
16:44 56.4 °F /  13.6 °C 36.4 °F /  2.4 °C 30.08in /  1018.5hPa NNE 4.0mph /  6.4km/h 8.0mph /  12.9km/h 47% 0.00in /  0mm
16:49 56.3 °F /  13.5 °C 35.8 °F /  2.1 °C 30.08in /  1018.5hPa NNE 5.0mph /  8km/h 11.0mph /  17.7km/h 46% 0.00in /  0mm
16:54 56.9 °F /  13.8 °C 37.4 °F /  3 °C 30.08in /  1018.5hPa NNE 5.0mph /  8km/h 13.0mph /  20.9km/h 48% 0.00in /  0mm
16:59 56.9 °F /  13.8 °C 37.9 °F /  3.3 °C 30.08in /  1018.5hPa NE 5.0mph /  8km/h 13.0mph /  20.9km/h 49% 0.00in /  0mm
17:04 56.8 °F /  13.8 °C 37.3 °F /  2.9 °C 30.08in /  1018.5hPa NNE 5.0mph /  8km/h 12.0mph /  19.3km/h 48% 0.00in /  0mm
17:09 56.4 °F /  13.6 °C 36.9 °F /  2.7 °C 30.08in /  1018.5hPa NE 4.0mph /  6.4km/h 10.0mph /  16.1km/h 48% 0.00in /  0mm
17:14 55.5 °F /  13.1 °C 35.6 °F /  2 °C 30.08in /  1018.5hPa NNE 4.0mph /  6.4km/h 11.0mph /  17.7km/h 47% 0.00in /  0mm
17:19 55.0 °F /  12.8 °C 35.1 °F /  1.7 °C 30.08in /  1018.5hPa NE 4.0mph /  6.4km/h 11.0mph /  17.7km/h 47% 0.00in /  0mm
17:24 54.9 °F /  12.7 °C 35.6 °F /  2 °C 30.08in /  1018.5hPa North 3.0mph /  4.8km/h 6.0mph /  9.7km/h 48% 0.00in /  0mm
17:29 55.1 °F /  12.8 °C 35.2 °F /  1.8 °C 30.08in /  1018.5hPa NE 13.0mph /  20.9km/h 15.0mph /  24.1km/h 47% 0.00in /  0mm
17:34 55.0 °F /  12.8 °C 35.1 °F /  1.7 °C 30.08in /  1018.5hPa NE 5.0mph /  8km/h 13.0mph /  20.9km/h 47% 0.00in /  0mm
17:39 54.7 °F /  12.6 °C 35.4 °F /  1.9 °C 30.08in /  1018.5hPa NE 6.0mph /  9.7km/h 14.0mph /  22.5km/h 48% 0.00in /  0mm
17:44 55.1 °F /  12.8 °C 36.8 °F /  2.7 °C 30.08in /  1018.5hPa NE 3.0mph /  4.8km/h 8.0mph /  12.9km/h 50% 0.00in /  0mm
17:49 54.9 °F /  12.7 °C 36.1 °F /  2.3 °C 30.07in /  1018.2hPa NE 5.0mph /  8km/h 11.0mph /  17.7km/h 49% 0.00in /  0mm
17:54 54.8 °F /  12.7 °C 37.0 °F /  2.8 °C 30.08in /  1018.5hPa NE 5.0mph /  8km/h 13.0mph /  20.9km/h 51% 0.00in /  0mm
17:59 54.4 °F /  12.4 °C 35.6 °F /  2 °C 30.08in /  1018.5hPa NE 5.0mph /  8km/h 13.0mph /  20.9km/h 49% 0.00in /  0mm
18:04 54.4 °F /  12.4 °C 35.1 °F /  1.7 °C 30.08in /  1018.5hPa NE 5.0mph /  8km/h 11.0mph /  17.7km/h 48% 0.00in /  0mm
18:09 54.0 °F /  12.2 °C 34.2 °F /  1.2 °C 30.08in /  1018.5hPa NE 6.0mph /  9.7km/h 14.0mph /  22.5km/h 47% 0.00in /  0mm
18:14 53.4 °F /  11.9 °C 34.2 °F /  1.2 °C 30.08in /  1018.5hPa NE 5.0mph /  8km/h 13.0mph /  20.9km/h 48% 0.00in /  0mm
18:19 53.0 °F /  11.7 °C 34.3 °F /  1.3 °C 30.08in /  1018.5hPa NE 6.0mph /  9.7km/h 13.0mph /  20.9km/h 49% 0.00in /  0mm
18:24 53.1 °F /  11.7 °C 33.9 °F /  1.1 °C 30.08in /  1018.5hPa NE 2.0mph /  3.2km/h 12.0mph /  19.3km/h 48% 0.00in /  0mm
18:29 53.1 °F /  11.7 °C 34.4 °F /  1.3 °C 30.08in /  1018.5hPa NE 6.0mph /  9.7km/h 10.0mph /  16.1km/h 49% 0.00in /  0mm
18:34 53.2 °F /  11.8 °C 35.5 °F /  1.9 °C 30.08in /  1018.5hPa NE 3.0mph /  4.8km/h 8.0mph /  12.9km/h 51% 0.00in /  0mm
18:39 52.7 °F /  11.5 °C 33.5 °F /  0.8 °C 30.08in /  1018.5hPa North 5.0mph /  8km/h 10.0mph /  16.1km/h 48% 0.00in /  0mm
18:44 52.8 °F /  11.6 °C 34.2 °F /  1.2 °C 30.08in /  1018.5hPa NE 4.0mph /  6.4km/h 10.0mph /  16.1km/h 49% 0.00in /  0mm
18:49 52.5 °F /  11.4 °C 33.9 °F /  1.1 °C 30.08in /  1018.5hPa NNE 3.0mph /  4.8km/h 7.0mph /  11.3km/h 49% 0.00in /  0mm
18:54 52.1 °F /  11.2 °C 33.0 °F /  0.6 °C 30.08in /  1018.5hPa NE 4.0mph /  6.4km/h 9.0mph /  14.5km/h 48% 0.00in /  0mm
18:59 52.0 °F /  11.1 °C 33.9 °F /  1.1 °C 30.08in /  1018.5hPa NE 4.0mph /  6.4km/h 9.0mph /  14.5km/h 50% 0.00in /  0mm
19:04 51.8 °F /  11 °C 34.2 °F /  1.2 °C 30.08in /  1018.5hPa NNE 3.0mph /  4.8km/h 6.0mph /  9.7km/h 51% 0.00in /  0mm
19:09 51.7 °F /  10.9 °C 34.6 °F /  1.4 °C 30.08in /  1018.5hPa NE 2.0mph /  3.2km/h 4.0mph /  6.4km/h 52% 0.00in /  0mm
19:14 51.6 °F /  10.9 °C 33.6 °F /  0.9 °C 30.08in /  1018.5hPa NE 3.0mph /  4.8km/h 8.0mph /  12.9km/h 50% 0.00in /  0mm
19:19 51.6 °F /  10.9 °C 33.0 °F /  0.6 °C 30.07in /  1018.2hPa NE 4.0mph /  6.4km/h 9.0mph /  14.5km/h 49% 0.00in /  0mm
19:24 51.6 °F /  10.9 °C 33.0 °F /  0.6 °C 30.07in /  1018.2hPa ENE 2.0mph /  3.2km/h 8.0mph /  12.9km/h 49% 0.00in /  0mm
19:29 51.5 °F /  10.8 °C 33.5 °F /  0.8 °C 30.07in /  1018.2hPa East 5.0mph /  8km/h 10.0mph /  16.1km/h 50% 0.00in /  0mm
19:34 51.4 °F /  10.8 °C 33.4 °F /  0.8 °C 30.07in /  1018.2hPa NE 6.0mph /  9.7km/h 9.0mph /  14.5km/h 50% 0.00in /  0mm
19:39 51.1 °F /  10.6 °C 33.1 °F /  0.6 °C 30.07in /  1018.2hPa ENE 6.0mph /  9.7km/h 11.0mph /  17.7km/h 50% 0.00in /  0mm
19:44 50.9 °F /  10.5 °C 33.4 °F /  0.8 °C 30.07in /  1018.2hPa NE 5.0mph /  8km/h 11.0mph /  17.7km/h 51% 0.00in /  0mm
19:49 50.7 °F /  10.4 °C 33.2 °F /  0.7 °C 30.07in /  1018.2hPa NE 3.0mph /  4.8km/h 7.0mph /  11.3km/h 51% 0.00in /  0mm
19:54 50.6 °F /  10.3 °C 33.1 °F /  0.6 °C 30.07in /  1018.2hPa NNE 3.0mph /  4.8km/h 7.0mph /  11.3km/h 51% 0.00in /  0mm
19:59 50.5 °F /  10.3 °C 33.5 °F /  0.8 °C 30.07in /  1018.2hPa NNE 3.0mph /  4.8km/h 11.0mph /  17.7km/h 52% 0.00in /  0mm
20:04 50.3 °F /  10.2 °C 33.8 °F /  1 °C 30.07in /  1018.2hPa NE 3.0mph /  4.8km/h 7.0mph /  11.3km/h 53% 0.00in /  0mm
20:09 50.2 °F /  10.1 °C 33.2 °F /  0.7 °C 30.07in /  1018.2hPa NE 8.0mph /  12.9km/h 8.0mph /  12.9km/h 52% 0.00in /  0mm
20:14 50.2 °F /  10.1 °C 33.2 °F /  0.7 °C 30.07in /  1018.2hPa NE 4.0mph /  6.4km/h 9.0mph /  14.5km/h 52% 0.00in /  0mm
20:19 50.1 °F /  10.1 °C 33.6 °F /  0.9 °C 30.06in /  1017.8hPa NE 4.0mph /  6.4km/h 9.0mph /  14.5km/h 53% 0.00in /  0mm
20:24 50.1 °F /  10.1 °C 33.6 °F /  0.9 °C 30.06in /  1017.8hPa NE 4.0mph /  6.4km/h 9.0mph /  14.5km/h 53% 0.00in /  0mm
20:29 50.0 °F /  10 °C 34.0 °F /  1.1 °C 30.06in /  1017.8hPa NE 4.0mph /  6.4km/h 9.0mph /  14.5km/h 54% 0.00in /  0mm
20:34 49.9 °F /  9.9 °C 33.9 °F /  1.1 °C 30.07in /  1018.2hPa NE 5.0mph /  8km/h 11.0mph /  17.7km/h 54% 0.00in /  0mm
20:39 49.8 °F /  9.9 °C 33.8 °F /  1 °C 30.07in /  1018.2hPa ENE 5.0mph /  8km/h 9.0mph /  14.5km/h 54% 0.00in /  0mm
20:44 49.7 °F /  9.8 °C 33.2 °F /  0.7 °C 30.06in /  1017.8hPa ENE 4.0mph /  6.4km/h 9.0mph /  14.5km/h 53% 0.00in /  0mm
20:49 49.6 °F /  9.8 °C 33.6 °F /  0.9 °C 30.07in /  1018.2hPa NE 3.0mph /  4.8km/h 10.0mph /  16.1km/h 54% 0.00in /  0mm
20:54 49.5 °F /  9.7 °C 33.1 °F /  0.6 °C 30.07in /  1018.2hPa ENE 5.0mph /  8km/h 9.0mph /  14.5km/h 53% 0.00in /  0mm
20:59 49.4 °F /  9.7 °C 33.4 °F /  0.8 °C 30.07in /  1018.2hPa NE 4.0mph /  6.4km/h 8.0mph /  12.9km/h 54% 0.00in /  0mm
21:04 49.3 °F /  9.6 °C 33.3 °F /  0.7 °C 30.07in /  1018.2hPa NE 6.0mph /  9.7km/h 10.0mph /  16.1km/h 54% 0.00in /  0mm
21:09 49.2 °F /  9.6 °C 33.7 °F /  0.9 °C 30.08in /  1018.5hPa Calm   8.0mph /  12.9km/h 55% 0.00in /  0mm
21:14 49.1 °F /  9.5 °C 33.6 °F /  0.9 °C 30.07in /  1018.2hPa ENE 3.0mph /  4.8km/h 8.0mph /  12.9km/h 55% 0.00in /  0mm
21:19 49.0 °F /  9.4 °C 33.1 °F /  0.6 °C 30.07in /  1018.2hPa ENE 4.0mph /  6.4km/h 9.0mph /  14.5km/h 54% 0.00in /  0mm
21:24 48.9 °F /  9.4 °C 33.4 °F /  0.8 °C 30.07in /  1018.2hPa ENE 4.0mph /  6.4km/h 9.0mph /  14.5km/h 55% 0.00in /  0mm
21:29 48.8 °F /  9.3 °C 32.9 °F /  0.5 °C 30.07in /  1018.2hPa ENE 4.0mph /  6.4km/h 10.0mph /  16.1km/h 54% 0.00in /  0mm
21:34 48.7 °F /  9.3 °C 32.8 °F /  0.4 °C 30.07in /  1018.2hPa ENE 4.0mph /  6.4km/h 10.0mph /  16.1km/h 54% 0.00in /  0mm
21:39 48.7 °F /  9.3 °C 33.2 °F /  0.7 °C 30.07in /  1018.2hPa ENE 3.0mph /  4.8km/h 6.0mph /  9.7km/h 55% 0.00in /  0mm
21:44 48.5 °F /  9.2 °C 33.1 °F /  0.6 °C 30.08in /  1018.5hPa ENE 3.0mph /  4.8km/h 7.0mph /  11.3km/h 55% 0.00in /  0mm
21:49 48.3 °F /  9.1 °C 32.9 °F /  0.5 °C 30.08in /  1018.5hPa East 2.0mph /  3.2km/h 7.0mph /  11.3km/h 55% 0.00in /  0mm
21:54 48.1 °F /  8.9 °C 32.7 °F /  0.4 °C 30.08in /  1018.5hPa East 6.0mph /  9.7km/h 6.0mph /  9.7km/h 55% 0.00in /  0mm
21:59 48.0 °F /  8.9 °C 33.0 °F /  0.6 °C 30.08in /  1018.5hPa ENE 5.0mph /  8km/h 7.0mph /  11.3km/h 56% 0.00in /  0mm
22:04 47.9 °F /  8.8 °C 32.9 °F /  0.5 °C 30.07in /  1018.2hPa ENE 3.0mph /  4.8km/h 7.0mph /  11.3km/h 56% 0.00in /  0mm
22:09 47.8 °F /  8.8 °C 32.4 °F /  0.2 °C 30.07in /  1018.2hPa NE 4.0mph /  6.4km/h 8.0mph /  12.9km/h 55% 0.00in /  0mm
22:14 47.6 °F /  8.7 °C 32.7 °F /  0.4 °C 30.07in /  1018.2hPa ENE 3.0mph /  4.8km/h 8.0mph /  12.9km/h 56% 0.00in /  0mm
22:19 47.4 °F /  8.6 °C 32.5 °F /  0.3 °C 30.07in /  1018.2hPa ENE 3.0mph /  4.8km/h 7.0mph /  11.3km/h 56% 0.00in /  0mm
22:24 47.2 °F /  8.4 °C 32.7 °F /  0.4 °C 30.07in /  1018.2hPa ENE 2.0mph /  3.2km/h 6.0mph /  9.7km/h 57% 0.00in /  0mm
22:29 47.1 °F /  8.4 °C 32.6 °F /  0.3 °C 30.07in /  1018.2hPa East 2.0mph /  3.2km/h 6.0mph /  9.7km/h 57% 0.00in /  0mm
22:34 47.0 °F /  8.3 °C 32.5 °F /  0.3 °C 30.07in /  1018.2hPa ENE 2.0mph /  3.2km/h 7.0mph /  11.3km/h 57% 0.00in /  0mm
22:39 46.8 °F /  8.2 °C 32.8 °F /  0.4 °C 30.06in /  1017.8hPa ENE 3.0mph /  4.8km/h 6.0mph /  9.7km/h 58% 0.00in /  0mm
22:44 46.7 °F /  8.2 °C 32.7 °F /  0.4 °C 30.07in /  1018.2hPa East 2.0mph /  3.2km/h 7.0mph /  11.3km/h 58% 0.00in /  0mm
22:49 46.6 °F /  8.1 °C 32.6 °F /  0.3 °C 30.06in /  1017.8hPa ENE 2.0mph /  3.2km/h 7.0mph /  11.3km/h 58% 0.00in /  0mm
22:54 46.4 °F /  8 °C 32.8 °F /  0.4 °C 30.07in /  1018.2hPa East 2.0mph /  3.2km/h 7.0mph /  11.3km/h 59% 0.00in /  0mm
22:59 46.3 °F /  7.9 °C 32.7 °F /  0.4 °C 30.08in /  1018.5hPa Calm   5.0mph /  8km/h 59% 0.00in /  0mm
23:04 46.2 °F /  7.9 °C 33.1 °F /  0.6 °C 30.08in /  1018.5hPa Calm   5.0mph /  8km/h 60% 0.00in /  0mm
23:09 46.1 °F /  7.8 °C 33.0 °F /  0.6 °C 30.08in /  1018.5hPa ESE 1.0mph /  1.6km/h 5.0mph /  8km/h 60% 0.00in /  0mm
23:14 45.9 °F /  7.7 °C 33.2 °F /  0.7 °C 30.08in /  1018.5hPa East 1.0mph /  1.6km/h 4.0mph /  6.4km/h 61% 0.00in /  0mm
23:19 45.7 °F /  7.6 °C 33.0 °F /  0.6 °C 30.08in /  1018.5hPa ENE 2.0mph /  3.2km/h 5.0mph /  8km/h 61% 0.00in /  0mm
23:24 45.5 °F /  7.5 °C 33.2 °F /  0.7 °C 30.08in /  1018.5hPa ENE 1.0mph /  1.6km/h 4.0mph /  6.4km/h 62% 0.00in /  0mm
23:29 45.4 °F /  7.4 °C 33.1 °F /  0.6 °C 30.07in /  1018.2hPa NE 2.0mph /  3.2km/h 5.0mph /  8km/h 62% 0.00in /  0mm
23:34 45.3 °F /  7.4 °C 33.4 °F /  0.8 °C 30.07in /  1018.2hPa NE 3.0mph /  4.8km/h 6.0mph /  9.7km/h 63% 0.00in /  0mm
23:39 45.2 °F /  7.3 °C 33.3 °F /  0.7 °C 30.07in /  1018.2hPa ENE 2.0mph /  3.2km/h 5.0mph /  8km/h 63% 0.00in /  0mm
23:44 45.2 °F /  7.3 °C 33.3 °F /  0.7 °C 30.07in /  1018.2hPa ENE 2.0mph /  3.2km/h 6.0mph /  9.7km/h 63% 0.00in /  0mm
23:49 45.1 °F /  7.3 °C 33.2 °F /  0.7 °C 30.07in /  1018.2hPa ENE 2.0mph /  3.2km/h 6.0mph /  9.7km/h 63% 0.00in /  0mm
23:54 45.0 °F /  7.2 °C 33.2 °F /  0.7 °C 30.07in /  1018.2hPa East 2.0mph /  3.2km/h 5.0mph /  8km/h 63% 0.00in /  0mm
23:59 45.1 °F /  7.3 °C 33.6 °F /  0.9 °C 30.07in /  1018.2hPa East 2.0mph /  3.2km/h 5.0mph /  8km/h 64% 0.00in /  0mm
Buffalo, New York, USA
Compliments of Weather Underground - 2.5 mb